createdAt,value
2018-09-26T00:04:08.682Z,23.25
2018-09-26T00:09:13.051Z,23.24
2018-09-26T00:14:16.512Z,23.24
2018-09-26T00:19:19.954Z,23.26
2018-09-26T00:24:23.396Z,23.25
2018-09-26T00:29:26.847Z,23.24
2018-09-26T00:34:30.278Z,23.23
2018-09-26T00:39:33.795Z,23.23
2018-09-26T00:44:37.305Z,23.24
2018-09-26T00:49:40.746Z,23.24
2018-09-26T00:54:44.195Z,23.23
2018-09-26T00:59:47.699Z,23.20
2018-09-26T01:04:51.164Z,23.06
2018-09-26T01:09:54.611Z,22.90
2018-09-26T01:14:58.103Z,22.71
2018-09-26T01:20:01.564Z,22.58
2018-09-26T01:25:05.219Z,22.46
2018-09-26T01:30:08.680Z,22.37
2018-09-26T01:35:12.123Z,22.31
2018-09-26T01:40:15.569Z,22.25
2018-09-26T01:45:19.044Z,22.19
2018-09-26T01:50:22.504Z,22.14
2018-09-26T01:55:25.952Z,22.10
2018-09-26T02:00:29.387Z,22.05
2018-09-26T02:05:32.822Z,22.03
2018-09-26T02:10:36.288Z,21.99
2018-09-26T02:15:39.777Z,21.96
2018-09-26T02:20:43.252Z,21.93
2018-09-26T02:25:46.707Z,21.89
2018-09-26T02:30:50.172Z,21.86
2018-09-26T02:35:53.618Z,21.84
2018-09-26T02:40:57.068Z,21.80
2018-09-26T02:46:00.531Z,21.78
2018-09-26T02:51:04.012Z,21.76
2018-09-26T02:56:07.461Z,21.75
2018-09-26T03:01:10.924Z,21.70
2018-09-26T03:06:14.395Z,21.68
2018-09-26T03:11:17.886Z,21.66
2018-09-26T03:16:21.371Z,21.63
2018-09-26T03:21:24.846Z,21.60
2018-09-26T03:26:28.334Z,21.60
2018-09-26T03:31:31.902Z,21.56
2018-09-26T03:36:35.352Z,21.55
2018-09-26T03:41:38.842Z,21.57
2018-09-26T03:46:42.347Z,21.53
2018-09-26T03:51:45.817Z,21.51
2018-09-26T03:56:49.275Z,21.54
2018-09-26T04:01:52.727Z,21.49
2018-09-26T04:06:56.177Z,21.52
2018-09-26T04:11:59.650Z,21.58
2018-09-26T04:17:03.188Z,21.64
2018-09-26T04:22:06.699Z,21.75
2018-09-26T04:27:10.168Z,21.87
2018-09-26T04:32:13.653Z,21.97
2018-09-26T04:37:17.103Z,22.05
2018-09-26T04:42:20.551Z,22.11
2018-09-26T04:47:24.148Z,22.17
2018-09-26T04:52:27.676Z,22.23
2018-09-26T04:57:31.235Z,22.27
2018-09-26T05:02:34.759Z,22.31
2018-09-26T05:07:38.964Z,22.36
2018-09-26T05:12:42.501Z,22.38
2018-09-26T05:17:46.117Z,22.42
2018-09-26T05:22:49.659Z,22.46
2018-09-26T05:27:53.099Z,22.49
2018-09-26T05:32:56.547Z,22.53
2018-09-26T05:38:00.033Z,22.57
2018-09-26T05:43:03.492Z,22.59
2018-09-26T05:48:07.000Z,22.62
2018-09-26T05:53:10.505Z,22.64
2018-09-26T05:58:13.995Z,22.67
2018-09-26T06:03:17.507Z,22.69
2018-09-26T06:08:21.013Z,22.71
2018-09-26T06:13:24.546Z,22.75
2018-09-26T06:18:28.230Z,22.76
2018-09-26T06:23:31.833Z,22.79
2018-09-26T06:28:35.342Z,22.80
2018-09-26T06:33:38.826Z,22.71
2018-09-26T06:38:42.314Z,18.51
2018-09-26T06:43:46.026Z,17.60
2018-09-26T06:48:49.509Z,18.11
2018-09-26T06:53:53.077Z,20.31
2018-09-26T06:58:56.552Z,20.99
2018-09-26T07:04:00.031Z,21.35
2018-09-26T07:09:03.826Z,21.53
2018-09-26T07:14:07.324Z,21.73
2018-09-26T07:19:10.910Z,21.71
2018-09-26T07:24:14.408Z,21.85
2018-09-26T07:29:17.919Z,21.87
2018-09-26T07:34:25.834Z,21.90
2018-09-26T07:39:31.075Z,21.98
2018-09-26T07:44:34.641Z,22.04
2018-09-26T07:49:38.127Z,22.09
2018-09-26T07:54:41.688Z,20.48
2018-09-26T07:59:45.386Z,19.44
2018-09-26T08:04:48.888Z,21.08
2018-09-26T08:09:52.540Z,21.38
2018-09-26T08:14:56.065Z,21.47
2018-09-26T08:19:59.540Z,21.49
2018-09-26T08:25:02.995Z,21.52
2018-09-26T08:30:06.699Z,21.49
2018-09-26T08:35:10.213Z,21.55
2018-09-26T08:40:13.703Z,21.56
2018-09-26T08:45:17.275Z,21.52
2018-09-26T08:50:20.802Z,21.51
2018-09-26T08:55:24.279Z,21.52
2018-09-26T09:00:33.108Z,21.47
2018-09-26T09:05:36.903Z,21.49
2018-09-26T09:10:40.411Z,21.47
2018-09-26T09:15:43.878Z,21.46
2018-09-26T09:20:47.311Z,21.42
2018-09-26T09:25:50.766Z,21.44
2018-09-26T09:30:54.219Z,21.44
2018-09-26T09:35:57.727Z,21.43
2018-09-26T09:41:02.155Z,21.42
2018-09-26T09:46:06.158Z,21.45
2018-09-26T09:51:09.588Z,21.42
2018-09-26T09:56:13.033Z,21.39
2018-09-26T10:01:21.764Z,21.39
2018-09-26T10:06:25.303Z,21.43
2018-09-26T10:11:29.084Z,21.43
2018-09-26T10:16:32.551Z,21.47
2018-09-26T10:21:35.995Z,21.49
2018-09-26T10:26:39.435Z,21.46
2018-09-26T10:31:42.886Z,21.41
2018-09-26T10:36:46.361Z,21.39
2018-09-26T10:41:50.563Z,21.38
2018-09-26T10:46:54.027Z,21.37
2018-09-26T10:51:57.528Z,21.38
2018-09-26T10:57:00.981Z,21.36
2018-09-26T11:02:04.496Z,21.42
2018-09-26T11:07:07.889Z,21.37
2018-09-26T11:12:11.346Z,21.37
2018-09-26T11:17:14.782Z,21.37
2018-09-26T11:22:18.220Z,21.37
2018-09-26T11:27:21.712Z,21.38
2018-09-26T11:32:25.209Z,21.42
2018-09-26T11:37:28.657Z,21.43
2018-09-26T11:42:32.162Z,21.47
2018-09-26T11:47:35.589Z,21.53
2018-09-26T11:52:39.060Z,21.52
2018-09-26T11:57:42.512Z,21.50
2018-09-26T12:02:45.995Z,21.52
2018-09-26T12:07:49.450Z,21.49
2018-09-26T12:12:52.905Z,21.51
2018-09-26T12:17:56.357Z,21.51
2018-09-26T12:22:59.786Z,21.51
2018-09-26T12:28:03.248Z,21.52
2018-09-26T12:33:06.828Z,21.53
2018-09-26T12:38:10.260Z,21.54
2018-09-26T12:43:13.728Z,21.54
2018-09-26T12:48:17.190Z,21.53
2018-09-26T12:53:20.673Z,21.53
2018-09-26T12:58:24.377Z,21.53
2018-09-26T13:03:27.806Z,21.51
2018-09-26T13:08:31.275Z,21.52
2018-09-26T13:13:34.716Z,21.53
2018-09-26T13:18:38.148Z,21.57
2018-09-26T13:23:41.588Z,21.59
2018-09-26T13:28:45.093Z,21.60
2018-09-26T13:33:48.550Z,21.60
2018-09-26T13:38:52.048Z,21.62
2018-09-26T13:43:55.551Z,21.63
2018-09-26T13:48:59.009Z,21.63
2018-09-26T13:54:02.512Z,21.63
2018-09-26T13:59:05.978Z,21.64
2018-09-26T14:04:09.544Z,21.64
2018-09-26T14:09:13.018Z,21.63
2018-09-26T14:14:17.120Z,21.64
2018-09-26T14:19:20.593Z,21.62
2018-09-26T14:24:24.401Z,21.62
2018-09-26T14:29:28.092Z,21.67
2018-09-26T14:34:31.865Z,21.70
2018-09-26T14:39:35.766Z,21.74
2018-09-26T14:44:39.422Z,21.78
2018-09-26T14:49:43.210Z,21.81
2018-09-26T14:54:46.917Z,21.83
2018-09-26T14:59:50.693Z,21.85
2018-09-26T15:04:55.832Z,21.87
2018-09-26T15:09:59.506Z,21.92
2018-09-26T15:15:03.352Z,21.95
2018-09-26T15:20:07.294Z,21.97
2018-09-26T15:25:10.963Z,21.99
2018-09-26T15:30:14.685Z,22.02
2018-09-26T15:35:18.473Z,22.03
2018-09-26T15:40:22.263Z,22.02
2018-09-26T15:45:25.936Z,22.00
2018-09-26T15:50:29.649Z,21.90
2018-09-26T15:55:33.435Z,21.82
2018-09-26T16:00:37.067Z,21.80
2018-09-26T16:05:40.510Z,21.75
2018-09-26T16:10:43.989Z,21.74
2018-09-26T16:15:47.431Z,21.75
2018-09-26T16:20:50.872Z,21.77
2018-09-26T16:25:54.406Z,21.77
2018-09-26T16:30:57.816Z,21.77
2018-09-26T16:36:01.250Z,21.82
2018-09-26T16:41:04.697Z,21.91
2018-09-26T16:46:08.152Z,21.93
2018-09-26T16:51:11.603Z,21.97
2018-09-26T16:56:15.048Z,21.93
2018-09-26T17:01:18.497Z,21.88
2018-09-26T17:06:21.990Z,21.84
2018-09-26T17:11:25.602Z,21.81
2018-09-26T17:16:29.041Z,21.78
2018-09-26T17:21:32.480Z,21.77
2018-09-26T17:26:35.951Z,21.72
2018-09-26T17:31:39.391Z,21.68
2018-09-26T17:36:42.870Z,21.64
2018-09-26T17:41:46.320Z,21.67
2018-09-26T17:46:49.816Z,21.64
2018-09-26T17:51:53.263Z,21.70
2018-09-26T17:56:56.720Z,21.74
2018-09-26T18:02:00.209Z,21.83
2018-09-26T18:07:03.756Z,21.91
2018-09-26T18:12:07.304Z,22.00
2018-09-26T18:17:10.807Z,22.12
2018-09-26T18:22:14.351Z,22.23
2018-09-26T18:27:17.859Z,22.29
2018-09-26T18:32:21.423Z,22.31
2018-09-26T18:37:25.682Z,22.35
2018-09-26T18:42:29.152Z,22.36
2018-09-26T18:47:32.594Z,22.46
2018-09-26T18:52:36.048Z,22.47
2018-09-26T18:57:40.713Z,22.54
2018-09-26T19:02:44.413Z,22.59
2018-09-26T19:07:47.871Z,22.62
2018-09-26T19:12:51.409Z,22.64
2018-09-26T19:17:54.977Z,22.63
2018-09-26T19:22:58.595Z,22.71
2018-09-26T19:28:02.297Z,22.71
2018-09-26T19:33:05.934Z,22.75
2018-09-26T19:38:09.502Z,22.75
2018-09-26T19:43:12.966Z,22.78
2018-09-26T19:48:16.933Z,22.79
2018-09-26T19:53:20.423Z,22.77
2018-09-26T19:58:23.971Z,22.89
2018-09-26T20:03:27.369Z,22.94
2018-09-26T20:08:30.804Z,22.96
2018-09-26T20:13:34.268Z,22.95
2018-09-26T20:18:37.701Z,22.95
2018-09-26T20:23:41.155Z,22.94
2018-09-26T20:28:44.638Z,22.94
2018-09-26T20:33:48.132Z,22.96
2018-09-26T20:38:51.676Z,22.99
2018-09-26T20:43:55.111Z,22.99
2018-09-26T20:48:58.587Z,23.00
2018-09-26T20:54:02.170Z,23.01
2018-09-26T20:59:05.701Z,23.01
2018-09-26T21:04:09.240Z,23.06
2018-09-26T21:09:15.402Z,23.05
2018-09-26T21:14:18.892Z,23.07
2018-09-26T21:19:22.545Z,23.08
2018-09-26T21:24:26.027Z,23.08
2018-09-26T21:29:29.492Z,23.09
2018-09-26T21:34:33.019Z,23.10
2018-09-26T21:39:36.510Z,23.10
2018-09-26T21:44:39.938Z,23.13
2018-09-26T21:49:43.427Z,23.12
2018-09-26T21:54:46.888Z,23.12
2018-09-26T21:59:50.369Z,23.13
2018-09-26T22:04:53.869Z,23.13
2018-09-26T22:09:57.328Z,23.14
2018-09-26T22:15:00.941Z,23.16
2018-09-26T22:20:04.520Z,23.17
2018-09-26T22:25:07.953Z,23.17
2018-09-26T22:30:11.462Z,23.15
2018-09-26T22:35:14.989Z,23.16
2018-09-26T22:40:18.489Z,23.17
2018-09-26T22:45:21.999Z,23.19
2018-09-26T22:50:25.509Z,23.18
2018-09-26T22:55:28.976Z,23.18
2018-09-26T23:00:32.416Z,23.18
2018-09-26T23:05:35.874Z,23.20
2018-09-26T23:10:39.353Z,23.19
2018-09-26T23:15:42.786Z,23.20
2018-09-26T23:20:46.276Z,23.20
2018-09-26T23:25:49.780Z,23.20
2018-09-26T23:30:53.247Z,23.19
2018-09-26T23:35:56.725Z,23.20
2018-09-26T23:41:00.269Z,23.20
2018-09-26T23:46:03.717Z,23.23
2018-09-26T23:51:07.247Z,23.22
2018-09-26T23:56:10.721Z,23.20
